»·PEaware :: N172EL KSNA-KSNA

N172EL :: KSNA-KSNA

FLIGHT INFORMATION

Flight Status: Arrived
Operator: Privately registered:
United States
More flights under this callsign
Pilot: William W. (20687)
Aircraft: CESSNA 172 SKYHAWK
(C172)
More flights by this aircraft type
Origin: KSNA John Wayne-Orange Co
United States
Destination: KSNA John Wayne-Orange Co
United States
More flights between these airports :: More routes between these airports
Route:
File this flight plan on PilotEdge
Remarks: i-1 rating ksna ils 20R
Altitude:
(Current/Filed)
3,000ft
Speed:
(Current/Filed)
115kts
Departed: 04-Oct-18 10:27 AM
Arrived: 04-Oct-18 10:56 AM
Distance/Time
Traveled:
0nm/0:29
Distance/Time
To Go:
Arrived

Flight Plot

Page will automatically refresh every two minutes.


Map Options




Map Legend


Flown Route
Filed Route
Departure Airport
Arrival Airport
Navaid (VOR, NDB)
Fix

Horizontal Profiles

Position Reports

Time Latitude Longitude Heading Altitude Ground
Speed
04-Oct-18 10:07 33.671189 -117.868027 210 60ft 0kts
04-Oct-18 10:08 33.671189 -117.868027 210 60ft 0kts
04-Oct-18 10:09 33.671189 -117.868027 210 60ft 0kts
04-Oct-18 10:10 33.671189 -117.868027 210 60ft 0kts
04-Oct-18 10:11 33.671189 -117.868027 210 60ft 0kts
04-Oct-18 10:12 33.671189 -117.868027 210 60ft 0kts
04-Oct-18 10:13 33.671189 -117.868027 210 60ft 0kts
04-Oct-18 10:14 33.671189 -117.868027 210 60ft 0kts
04-Oct-18 10:15 33.671189 -117.868027 210 60ft 0kts
04-Oct-18 10:16 33.671189 -117.868027 210 60ft 0kts
04-Oct-18 10:17 33.671189 -117.868027 210 60ft 0kts
04-Oct-18 10:18 33.671189 -117.868027 210 60ft 0kts
04-Oct-18 10:19 33.671189 -117.868027 210 60ft 0kts
04-Oct-18 10:20 33.671189 -117.868027 210 60ft 0kts
04-Oct-18 10:21 33.671189 -117.868027 210 60ft 0kts
04-Oct-18 10:22 33.670692 -117.868744 220 60ft 13kts
04-Oct-18 10:23 33.673099 -117.867244 44 60ft 11kts
04-Oct-18 10:24 33.674959 -117.866547 26 60ft 13kts
04-Oct-18 10:25 33.679403 -117.863695 36 60ft 17kts
04-Oct-18 10:26 33.679907 -117.863617 328 60ft 0kts
04-Oct-18 10:27 33.679907 -117.863617 328 60ft 0kts
04-Oct-18 10:28 33.680041 -117.866084 207 60ft 23kts
04-Oct-18 10:29 33.671395 -117.877208 240 529ft 73kts
04-Oct-18 10:30 33.668247 -117.884199 240 810ft 75kts
04-Oct-18 10:31 33.658378 -117.906126 240 1695ft 74kts
04-Oct-18 10:32 33.646357 -117.932785 241 2008ft 108kts
04-Oct-18 10:33 33.631086 -117.964149 223 2272ft 110kts
04-Oct-18 10:34 33.630564 -117.993223 337 2734ft 112kts
04-Oct-18 10:35 33.660761 -117.983542 21 2992ft 122kts
04-Oct-18 10:36 33.691187 -117.969035 21 2987ft 115kts
04-Oct-18 10:37 33.720624 -117.954999 21 2988ft 114kts
04-Oct-18 10:38 33.750025 -117.940959 21 2985ft 114kts
04-Oct-18 10:39 33.779453 -117.926898 21 2984ft 114kts
04-Oct-18 10:40 33.808888 -117.912828 21 2984ft 114kts
04-Oct-18 10:41 33.838418 -117.898707 21 2980ft 114kts
04-Oct-18 10:42 33.867823 -117.884638 21 2979ft 114kts
04-Oct-18 10:43 33.897273 -117.870542 21 2979ft 114kts
04-Oct-18 10:44 33.914413 -117.843968 91 2992ft 113kts
04-Oct-18 10:45 33.913523 -117.806131 91 2991ft 114kts
04-Oct-18 10:46 33.912603 -117.767881 91 2991ft 114kts
04-Oct-18 10:47 33.911295 -117.730685 106 2986ft 103kts
04-Oct-18 10:48 33.888654 -117.728053 207 3020ft 92kts
04-Oct-18 10:49 33.867111 -117.743877 211 3052ft 89kts
04-Oct-18 10:50 33.845938 -117.759584 210 3070ft 89kts
04-Oct-18 10:51 33.824679 -117.775295 211 3087ft 89kts
04-Oct-18 10:52 33.803295 -117.790820 208 3104ft 89kts
04-Oct-18 10:53 33.777129 -117.807606 207 2353ft 114kts
04-Oct-18 10:54 33.753554 -117.822780 207 2008ft 75kts
04-Oct-18 10:55 33.732471 -117.836283 212 1412ft 103kts
04-Oct-18 10:56 33.709240 -117.853653 209 690ft 102kts
04-Oct-18 10:57 33.686127 -117.863575 196 165ft 69kts
04-Oct-18 10:58 33.674972 -117.869439 206 60ft 21kts
04-Oct-18 10:59 33.673333 -117.871857 204 60ft 8kts
04-Oct-18 11:00 33.671833 -117.873438 225 60ft 0kts

Navigation Log

Ident Type
Flight plan parsing failed, navigation log unavailable